Time;durP1;ratioP1;P1;durP2;ratioP2;P2;SDS_P1;SDS_P2;PMS_P1;PMS_P2;Temp;Humidity;BMP_temperature;BMP_pressure;BME280_temperature;BME280_humidity;BME280_pressure;Samples;Min_cycle;Max_cycle;Signal;HPM_P1;HPM_P2
2022/08/27 00:00:09;;;;;;;7.30;2.78;;;;;;;;;;5044916;28;20064;-62
2022/08/27 00:02:35;;;;;;;5.25;2.45;;;;;;;;;;5045297;28;20509;-62
2022/08/27 00:05:02;;;;;;;5.60;2.78;;;;;;;;;;5053323;28;20040;-62
2022/08/27 00:07:28;;;;;;;10.25;3.13;;;;;;;;;;5052642;28;20053;-62
2022/08/27 00:09:54;;;;;;;7.25;3.00;;;;;;;;;;5052796;28;20132;-62
2022/08/27 00:12:20;;;;;;;9.85;2.67;;;;;;;;;;5052967;28;20044;-63
2022/08/27 00:14:46;;;;;;;11.98;3.05;;;;;;;;;;5053010;28;20049;-63
2022/08/27 00:17:13;;;;;;;6.90;3.03;;;;;;;;;;5052468;28;20071;-63
2022/08/27 00:19:39;;;;;;;9.52;3.00;;;;;;;;;;5053080;28;20576;-63
2022/08/27 00:22:06;;;;;;;7.25;3.00;;;;;;;;;;5053144;28;20041;-63
2022/08/27 00:24:32;;;;;;;8.70;3.03;;;;;;;;;;5052580;28;20138;-63
2022/08/27 00:26:58;;;;;;;10.68;3.10;;;;;;;;;;5052845;28;20080;-62
2022/08/27 00:29:25;;;;;;;7.47;2.70;;;;;;;;;;5052477;28;20045;-63
2022/08/27 00:31:52;;;;;;;7.95;3.35;;;;;;;;;;5052314;28;20049;-63
2022/08/27 00:34:18;;;;;;;7.00;3.40;;;;;;;;;;5052753;28;20041;-62
2022/08/27 00:36:44;;;;;;;6.65;2.85;;;;;;;;;;5052476;28;20036;-63
2022/08/27 00:39:11;;;;;;;8.80;3.10;;;;;;;;;;5052163;28;20507;-63
2022/08/27 00:41:38;;;;;;;8.43;3.25;;;;;;;;;;5052413;28;20669;-62
2022/08/27 00:44:05;;;;;;;10.43;3.72;;;;;;;;;;5052448;28;20040;-63
2022/08/27 00:46:31;;;;;;;10.38;3.78;;;;;;;;;;5051853;28;20067;-62
2022/08/27 00:49:00;;;;;;;7.63;3.38;;;;;;;;;;5052279;28;20526;-62
2022/08/27 00:51:28;;;;;;;7.03;3.50;;;;;;;;;;5052416;28;20045;-62
2022/08/27 00:53:55;;;;;;;7.50;3.40;;;;;;;;;;5051499;28;20112;-62
2022/08/27 00:56:22;;;;;;;11.27;3.88;;;;;;;;;;5052139;28;20041;-62
2022/08/27 00:58:51;;;;;;;5.35;2.92;;;;;;;;;;5052215;28;20045;-63
2022/08/27 01:01:19;;;;;;;8.63;3.45;;;;;;;;;;5035081;28;20041;-62
2022/08/27 01:03:47;;;;;;;7.00;3.05;;;;;;;;;;5052207;28;20358;-62
2022/08/27 01:06:14;;;;;;;5.93;3.30;;;;;;;;;;5051839;28;20032;-62
2022/08/27 01:08:44;;;;;;;9.27;3.83;;;;;;;;;;5051167;28;20061;-63
2022/08/27 01:11:10;;;;;;;6.95;3.28;;;;;;;;;;5051725;28;20551;-62
2022/08/27 01:13:37;;;;;;;7.05;3.53;;;;;;;;;;5051732;28;20041;-63
2022/08/27 01:16:04;;;;;;;8.45;3.13;;;;;;;;;;5051277;28;20068;-62
2022/08/27 01:18:32;;;;;;;10.55;4.35;;;;;;;;;;5051540;28;20041;-62
2022/08/27 01:21:01;;;;;;;7.75;3.40;;;;;;;;;;5051792;28;20455;-63
2022/08/27 01:24:00;;;;;;;8.57;3.45;;;;;;;;;;5051476;28;20044;-63
2022/08/27 01:26:26;;;;;;;7.20;3.22;;;;;;;;;;4997516;28;20090;-62
2022/08/27 01:28:53;;;;;;;7.65;3.33;;;;;;;;;;5051580;28;20044;-62
2022/08/27 01:31:19;;;;;;;5.70;3.10;;;;;;;;;;5051459;28;20045;-63
2022/08/27 01:33:56;;;;;;;8.13;3.28;;;;;;;;;;5051688;28;20041;-63
2022/08/27 01:36:22;;;;;;;5.35;3.13;;;;;;;;;;5051064;28;20041;-62
2022/08/27 01:38:49;;;;;;;9.82;3.75;;;;;;;;;;5051733;28;20087;-62
2022/08/27 01:41:15;;;;;;;6.82;3.45;;;;;;;;;;5051567;28;20102;-62
2022/08/27 01:43:41;;;;;;;6.97;3.25;;;;;;;;;;5051434;28;20037;-62
2022/08/27 01:46:07;;;;;;;5.95;3.15;;;;;;;;;;5051256;28;20651;-62
2022/08/27 01:48:33;;;;;;;7.05;3.70;;;;;;;;;;5051614;28;20577;-62
2022/08/27 01:50:59;;;;;;;6.50;3.38;;;;;;;;;;5051136;28;20370;-62
2022/08/27 01:53:26;;;;;;;6.75;3.70;;;;;;;;;;5051235;28;20037;-62
2022/08/27 01:55:53;;;;;;;10.35;3.67;;;;;;;;;;5051526;28;20033;-62
2022/08/27 01:58:20;;;;;;;7.25;3.53;;;;;;;;;;5051314;28;20387;-62
2022/08/27 02:00:48;;;;;;;10.52;3.83;;;;;;;;;;5037467;28;20030;-62
2022/08/27 02:03:17;;;;;;;5.95;3.42;;;;;;;;;;5048376;28;20052;-62
2022/08/27 02:05:43;;;;;;;7.78;3.60;;;;;;;;;;5053920;28;20048;-62
2022/08/27 02:08:10;;;;;;;8.52;3.88;;;;;;;;;;5054626;28;20061;-62
2022/08/27 02:10:38;;;;;;;7.72;3.60;;;;;;;;;;5054970;28;20045;-62
2022/08/27 02:13:05;;;;;;;8.75;3.28;;;;;;;;;;5055365;28;20116;-62
2022/08/27 02:15:33;;;;;;;10.27;3.88;;;;;;;;;;5054758;28;20045;-62
2022/08/27 02:17:59;;;;;;;7.28;3.35;;;;;;;;;;5055042;28;20048;-63
2022/08/27 02:20:25;;;;;;;10.63;3.35;;;;;;;;;;5055283;28;20455;-62
2022/08/27 02:22:51;;;;;;;9.35;3.63;;;;;;;;;;5054652;28;20060;-62
2022/08/27 02:25:20;;;;;;;5.25;3.30;;;;;;;;;;5054407;28;20099;-62
2022/08/27 02:27:46;;;;;;;9.32;3.95;;;;;;;;;;5054450;28;20053;-62
2022/08/27 02:30:14;;;;;;;10.63;3.80;;;;;;;;;;5053764;28;20081;-62
2022/08/27 02:32:40;;;;;;;7.15;3.80;;;;;;;;;;5054107;28;20090;-62
2022/08/27 02:35:06;;;;;;;7.00;4.20;;;;;;;;;;5054486;28;20124;-62
2022/08/27 02:37:33;;;;;;;7.13;3.65;;;;;;;;;;5053704;28;20050;-62
2022/08/27 02:40:00;;;;;;;8.43;3.80;;;;;;;;;;5054452;28;20041;-62
2022/08/27 02:42:26;;;;;;;8.38;3.75;;;;;;;;;;5036757;28;20063;-62
2022/08/27 02:44:53;;;;;;;7.85;3.83;;;;;;;;;;5054147;28;20132;-62
2022/08/27 02:47:19;;;;;;;8.15;3.47;;;;;;;;;;5054667;28;20053;-62
2022/08/27 02:49:46;;;;;;;9.95;4.10;;;;;;;;;;5054699;28;20144;-62
2022/08/27 02:52:12;;;;;;;8.55;4.07;;;;;;;;;;5054310;28;20103;-62
2022/08/27 02:54:38;;;;;;;7.18;4.18;;;;;;;;;;5054604;28;20049;-62
2022/08/27 02:57:05;;;;;;;10.15;4.53;;;;;;;;;;5054336;28;20043;-62
2022/08/27 02:59:31;;;;;;;10.18;4.18;;;;;;;;;;5050942;28;20163;-62
2022/08/27 03:01:57;;;;;;;9.50;4.20;;;;;;;;;;5040775;28;20526;-62
2022/08/27 03:04:23;;;;;;;8.07;3.58;;;;;;;;;;5053986;28;20167;-62
2022/08/27 03:06:49;;;;;;;7.20;3.90;;;;;;;;;;5053614;28;20467;-62
2022/08/27 03:09:15;;;;;;;9.38;4.35;;;;;;;;;;5052889;28;20079;-62
2022/08/27 03:11:41;;;;;;;9.75;3.80;;;;;;;;;;5053159;28;20037;-62
2022/08/27 03:14:07;;;;;;;6.65;3.70;;;;;;;;;;5052699;28;20040;-62
2022/08/27 03:16:34;;;;;;;10.48;3.90;;;;;;;;;;5052475;28;20049;-63
2022/08/27 03:19:00;;;;;;;11.63;4.25;;;;;;;;;;5052952;28;20374;-62
2022/08/27 03:21:26;;;;;;;7.95;3.50;;;;;;;;;;5052480;28;20631;-62
2022/08/27 03:23:52;;;;;;;9.45;4.10;;;;;;;;;;5052898;28;20103;-62
2022/08/27 03:26:19;;;;;;;7.25;3.65;;;;;;;;;;5052774;28;20037;-63
2022/08/27 03:28:45;;;;;;;12.88;4.35;;;;;;;;;;5052388;28;20041;-62
2022/08/27 03:31:19;;;;;;;9.55;3.80;;;;;;;;;;5052670;28;20044;-62
2022/08/27 03:33:45;;;;;;;6.50;3.60;;;;;;;;;;5052434;28;20041;-63
2022/08/27 03:36:11;;;;;;;8.02;3.25;;;;;;;;;;5034365;28;20045;-62
2022/08/27 03:38:38;;;;;;;7.10;3.70;;;;;;;;;;5052448;28;20040;-62
2022/08/27 03:41:04;;;;;;;7.43;2.97;;;;;;;;;;5052829;28;20072;-62
2022/08/27 03:43:30;;;;;;;8.07;3.20;;;;;;;;;;5052380;28;20383;-62
2022/08/27 03:45:56;;;;;;;6.55;3.75;;;;;;;;;;5052625;28;20072;-62
2022/08/27 03:48:22;;;;;;;7.97;4.85;;;;;;;;;;5052531;28;20061;-62
2022/08/27 03:50:49;;;;;;;6.70;3.60;;;;;;;;;;5052091;28;20184;-62
2022/08/27 03:53:16;;;;;;;9.45;4.03;;;;;;;;;;5052404;28;20044;-62
2022/08/27 03:55:43;;;;;;;6.50;3.40;;;;;;;;;;5052209;28;20123;-62
2022/08/27 03:58:10;;;;;;;5.95;3.67;;;;;;;;;;5051943;28;20056;-62
2022/08/27 04:00:36;;;;;;;7.40;3.75;;;;;;;;;;5040202;28;20391;-62
2022/08/27 04:03:04;;;;;;;6.53;3.60;;;;;;;;;;5029956;28;20486;-62
2022/08/27 04:05:31;;;;;;;8.85;3.83;;;;;;;;;;5051772;28;20080;-62
2022/08/27 04:07:57;;;;;;;7.05;3.60;;;;;;;;;;5006687;28;1311209;-63
2022/08/27 04:10:24;;;;;;;8.55;3.85;;;;;;;;;;5053093;28;20090;-62
2022/08/27 04:12:50;;;;;;;9.90;3.72;;;;;;;;;;5052757;28;20037;-62
2022/08/27 04:15:16;;;;;;;8.70;3.80;;;;;;;;;;5053149;28;20451;-62
2022/08/27 04:17:42;;;;;;;9.88;3.65;;;;;;;;;;5052811;28;20048;-62
2022/08/27 04:20:08;;;;;;;7.10;3.72;;;;;;;;;;5052592;28;20471;-62
2022/08/27 04:22:35;;;;;;;8.75;3.95;;;;;;;;;;5052957;28;20072;-62
2022/08/27 04:25:01;;;;;;;8.02;3.72;;;;;;;;;;5052900;28;20062;-62
2022/08/27 04:27:27;;;;;;;6.93;3.40;;;;;;;;;;5051428;28;20541;-62
2022/08/27 04:29:57;;;;;;;6.28;3.60;;;;;;;;;;5052634;28;20043;-62
2022/08/27 04:32:24;;;;;;;6.47;3.20;;;;;;;;;;5052801;28;20080;-62
2022/08/27 04:34:53;;;;;;;9.30;4.40;;;;;;;;;;5052169;28;20044;-62
2022/08/27 04:37:19;;;;;;;6.38;3.45;;;;;;;;;;5052016;28;20041;-62
2022/08/27 04:39:45;;;;;;;7.80;3.65;;;;;;;;;;5052496;28;20037;-62
2022/08/27 04:42:11;;;;;;;6.75;3.55;;;;;;;;;;5051822;28;20044;-62
2022/08/27 04:44:38;;;;;;;7.25;3.38;;;;;;;;;;5052248;28;20080;-62
2022/08/27 04:47:04;;;;;;;5.97;3.40;;;;;;;;;;5052244;28;20045;-62
2022/08/27 04:49:31;;;;;;;5.70;3.80;;;;;;;;;;5051990;28;20040;-62
2022/08/27 04:51:58;;;;;;;7.40;3.70;;;;;;;;;;5052395;28;20048;-62
2022/08/27 04:54:24;;;;;;;7.90;4.28;;;;;;;;;;5052338;28;20090;-63
2022/08/27 04:56:50;;;;;;;5.03;3.35;;;;;;;;;;5051618;28;20084;-62
2022/08/27 04:59:16;;;;;;;11.63;3.63;;;;;;;;;;5051034;28;20466;-62
2022/08/27 05:01:42;;;;;;;10.95;3.70;;;;;;;;;;5036515;28;20116;-62
2022/08/27 05:04:10;;;;;;;7.80;4.00;;;;;;;;;;5051870;28;20040;-62
2022/08/27 05:06:36;;;;;;;10.38;4.78;;;;;;;;;;5051774;28;20152;-62
2022/08/27 05:09:03;;;;;;;5.75;3.75;;;;;;;;;;5052066;28;20479;-62
2022/08/27 05:11:33;;;;;;;9.50;3.90;;;;;;;;;;5051317;28;20041;-62
2022/08/27 05:14:02;;;;;;;7.78;3.60;;;;;;;;;;5052006;28;20049;-62
2022/08/27 05:16:28;;;;;;;7.57;3.92;;;;;;;;;;5051515;28;20072;-62
2022/08/27 05:18:54;;;;;;;8.55;3.42;;;;;;;;;;5051613;28;20474;-62
2022/08/27 05:21:22;;;;;;;10.25;3.80;;;;;;;;;;5051799;28;20631;-62
2022/08/27 05:23:48;;;;;;;7.45;4.18;;;;;;;;;;5051767;28;20094;-62
2022/08/27 05:26:14;;;;;;;6.13;4.00;;;;;;;;;;5050953;28;20091;-62
2022/08/27 05:28:40;;;;;;;7.00;4.35;;;;;;;;;;5051725;28;20090;-62
2022/08/27 05:31:08;;;;;;;9.38;4.60;;;;;;;;;;5051609;28;20475;-62
2022/08/27 05:33:36;;;;;;;7.45;4.53;;;;;;;;;;5051301;28;20048;-63
2022/08/27 05:36:02;;;;;;;8.35;4.30;;;;;;;;;;5051533;28;20483;-62
2022/08/27 05:38:29;;;;;;;9.77;4.43;;;;;;;;;;5051674;28;20686;-62
2022/08/27 05:41:07;;;;;;;10.60;4.53;;;;;;;;;;5033061;28;20495;-62
2022/08/27 05:43:34;;;;;;;13.25;4.20;;;;;;;;;;5051250;28;20041;-62
2022/08/27 05:46:04;;;;;;;9.80;4.80;;;;;;;;;;5051492;28;20049;-62
2022/08/27 05:48:31;;;;;;;8.52;4.15;;;;;;;;;;5051072;28;20045;-62
2022/08/27 05:50:57;;;;;;;9.55;4.50;;;;;;;;;;5051330;28;20044;-62
2022/08/27 05:53:23;;;;;;;6.75;3.60;;;;;;;;;;5051430;28;20559;-62
2022/08/27 05:55:49;;;;;;;5.65;3.78;;;;;;;;;;5051149;28;20114;-62
2022/08/27 06:01:03;;;;;;;13.02;4.82;;;;;;;;;;5036032;28;20435;-62
2022/08/27 06:03:29;;;;;;;12.82;4.78;;;;;;;;;;5050259;28;20352;-63
2022/08/27 06:06:02;;;;;;;8.18;4.00;;;;;;;;;;5050717;28;20072;-62
2022/08/27 06:08:29;;;;;;;10.93;4.40;;;;;;;;;;5050894;28;20133;-62
2022/08/27 06:10:55;;;;;;;6.93;4.35;;;;;;;;;;5032782;28;20376;-62
2022/08/27 06:13:22;;;;;;;8.10;4.00;;;;;;;;;;5051306;28;20041;-62
2022/08/27 06:15:48;;;;;;;10.32;3.85;;;;;;;;;;5051301;28;20120;-62
2022/08/27 06:18:14;;;;;;;10.15;3.97;;;;;;;;;;5050763;28;20123;-62
2022/08/27 06:20:41;;;;;;;9.13;3.88;;;;;;;;;;5051217;28;20041;-62
2022/08/27 06:23:07;;;;;;;11.38;4.05;;;;;;;;;;5051188;28;20483;-63
2022/08/27 06:25:33;;;;;;;10.43;3.75;;;;;;;;;;5050882;28;20063;-62
2022/08/27 06:28:01;;;;;;;7.38;3.40;;;;;;;;;;5051028;28;20322;-62
2022/08/27 06:30:27;;;;;;;7.95;3.28;;;;;;;;;;5050981;28;20095;-62
2022/08/27 06:32:53;;;;;;;10.25;3.80;;;;;;;;;;5050471;28;20076;-63
2022/08/27 06:35:19;;;;;;;11.20;3.50;;;;;;;;;;5050978;28;20045;-63
2022/08/27 06:37:45;;;;;;;8.90;3.35;;;;;;;;;;5051054;28;20045;-62
2022/08/27 06:40:11;;;;;;;7.25;3.33;;;;;;;;;;5050271;28;20083;-62
2022/08/27 06:42:37;;;;;;;6.93;3.50;;;;;;;;;;5051039;28;20040;-62
2022/08/27 06:45:04;;;;;;;14.35;3.75;;;;;;;;;;5051073;28;20049;-63
2022/08/27 06:47:31;;;;;;;6.35;3.90;;;;;;;;;;5050372;28;20383;-62
2022/08/27 06:49:57;;;;;;;6.50;3.47;;;;;;;;;;5050775;28;20108;-62
2022/08/27 06:52:23;;;;;;;11.52;3.90;;;;;;;;;;5054643;28;20391;-62
2022/08/27 06:54:49;;;;;;;7.10;3.13;;;;;;;;;;5054190;28;20048;-62
2022/08/27 06:57:15;;;;;;;11.55;3.13;;;;;;;;;;5054434;28;20758;-63
2022/08/27 06:59:43;;;;;;;7.38;2.92;;;;;;;;;;5049902;28;20038;-62
2022/08/27 07:02:09;;;;;;;6.97;3.55;;;;;;;;;;5024435;28;20045;-63
2022/08/27 07:04:36;;;;;;;9.80;3.35;;;;;;;;;;5054433;28;20773;-63
2022/08/27 07:07:02;;;;;;;8.88;2.90;;;;;;;;;;5053952;28;20194;-62
2022/08/27 07:09:32;;;;;;;8.88;3.00;;;;;;;;;;5053921;28;20041;-63
2022/08/27 07:11:58;;;;;;;7.13;3.42;;;;;;;;;;5054044;28;20478;-63
2022/08/27 07:14:24;;;;;;;6.35;2.75;;;;;;;;;;5054243;28;20040;-62
2022/08/27 07:16:51;;;;;;;9.13;3.50;;;;;;;;;;5053482;28;20044;-62
2022/08/27 07:19:17;;;;;;;5.97;2.33;;;;;;;;;;5054179;28;20067;-63
2022/08/27 07:21:43;;;;;;;11.30;3.78;;;;;;;;;;5054032;28;20052;-62
2022/08/27 07:24:11;;;;;;;6.30;2.50;;;;;;;;;;5053707;28;20041;-62
2022/08/27 07:26:38;;;;;;;7.88;2.33;;;;;;;;;;5053880;28;20055;-62
2022/08/27 07:29:05;;;;;;;15.48;2.70;;;;;;;;;;5053978;28;20371;-63
2022/08/27 07:31:34;;;;;;;7.38;2.47;;;;;;;;;;5053744;28;20409;-62
2022/08/27 07:34:00;;;;;;;6.20;2.33;;;;;;;;;;5053389;28;20041;-63
2022/08/27 07:36:27;;;;;;;6.78;2.10;;;;;;;;;;5053775;28;20562;-63
2022/08/27 07:38:53;;;;;;;4.97;1.73;;;;;;;;;;5053780;28;20041;-63
2022/08/27 07:41:19;;;;;;;7.55;2.28;;;;;;;;;;5053433;28;20411;-62
2022/08/27 07:46:30;;;;;;;5.65;1.38;;;;;;;;;;5052951;28;20041;-63
2022/08/27 07:48:56;;;;;;;5.85;1.52;;;;;;;;;;5053575;28;20084;-63
2022/08/27 07:51:23;;;;;;;8.27;1.83;;;;;;;;;;5053466;28;20091;-63
2022/08/27 07:53:49;;;;;;;9.30;2.00;;;;;;;;;;5052743;28;20052;-63
2022/08/27 07:56:15;;;;;;;7.20;1.60;;;;;;;;;;5053490;28;20067;-63
2022/08/27 07:58:42;;;;;;;4.95;1.73;;;;;;;;;;5052711;28;20094;-63
2022/08/27 08:01:08;;;;;;;4.75;1.48;;;;;;;;;;5036263;28;20121;-63
2022/08/27 08:03:34;;;;;;;6.20;1.45;;;;;;;;;;5051455;28;20076;-63
2022/08/27 08:06:04;;;;;;;8.43;1.50;;;;;;;;;;5052106;28;20084;-63
2022/08/27 08:08:31;;;;;;;4.97;1.42;;;;;;;;;;5051900;28;20080;-63
2022/08/27 08:10:57;;;;;;;6.15;1.52;;;;;;;;;;5052357;28;20049;-63
2022/08/27 08:13:23;;;;;;;5.97;1.48;;;;;;;;;;5052488;28;20047;-63
2022/08/27 08:15:49;;;;;;;7.75;1.70;;;;;;;;;;5053070;28;20045;-62
2022/08/27 08:18:15;;;;;;;6.88;1.90;;;;;;;;;;5034732;28;20045;-63
2022/08/27 08:20:42;;;;;;;4.05;1.38;;;;;;;;;;5053020;28;20055;-63
2022/08/27 08:23:08;;;;;;;4.75;1.52;;;;;;;;;;5052970;28;20048;-63
2022/08/27 08:25:34;;;;;;;7.78;1.58;;;;;;;;;;5052547;28;20485;-63
2022/08/27 08:28:00;;;;;;;8.88;1.70;;;;;;;;;;5052641;28;20056;-63
2022/08/27 08:30:27;;;;;;;5.32;1.65;;;;;;;;;;5052747;28;20153;-63
2022/08/27 08:32:53;;;;;;;9.13;1.55;;;;;;;;;;5052164;28;20383;-63
2022/08/27 08:35:20;;;;;;;9.25;2.25;;;;;;;;;;5052743;28;20060;-63
2022/08/27 08:37:46;;;;;;;8.18;1.55;;;;;;;;;;5052638;28;20076;-63
2022/08/27 08:40:23;;;;;;;7.85;1.90;;;;;;;;;;5052077;28;20502;-63
2022/08/27 08:42:55;;;;;;;8.32;1.60;;;;;;;;;;5052555;28;20051;-63
2022/08/27 08:45:25;;;;;;;6.38;1.42;;;;;;;;;;5052656;28;20064;-63
2022/08/27 08:47:55;;;;;;;6.38;1.60;;;;;;;;;;5052046;28;20051;-63
2022/08/27 08:50:21;;;;;;;6.75;1.42;;;;;;;;;;5052524;28;20642;-63
2022/08/27 08:52:55;;;;;;;6.93;1.38;;;;;;;;;;5052411;28;20048;-63
2022/08/27 08:55:21;;;;;;;6.28;1.55;;;;;;;;;;5051969;28;20041;-63
2022/08/27 08:58:01;;;;;;;5.75;1.40;;;;;;;;;;5052193;28;20786;-62
2022/08/27 09:00:27;;;;;;;8.52;1.45;;;;;;;;;;5040762;28;20064;-63
2022/08/27 09:02:54;;;;;;;8.32;1.60;;;;;;;;;;5046335;28;20508;-63
2022/08/27 09:05:21;;;;;;;6.07;1.60;;;;;;;;;;5052131;28;20127;-63
2022/08/27 09:07:59;;;;;;;4.65;1.58;;;;;;;;;;5051383;28;20102;-63
2022/08/27 09:10:29;;;;;;;6.78;1.40;;;;;;;;;;5033858;28;20047;-63
2022/08/27 09:12:57;;;;;;;4.90;1.35;;;;;;;;;;5051745;28;20434;-63
2022/08/27 09:15:26;;;;;;;7.68;1.40;;;;;;;;;;5051574;28;20028;-63
2022/08/27 09:17:53;;;;;;;7.30;1.30;;;;;;;;;;5051427;28;20041;-63
2022/08/27 09:20:21;;;;;;;8.43;1.42;;;;;;;;;;5052003;28;20040;-63
2022/08/27 09:22:53;;;;;;;10.45;1.52;;;;;;;;;;5051474;28;20049;-63
2022/08/27 09:25:27;;;;;;;7.60;1.38;;;;;;;;;;5051839;28;20087;-63
2022/08/27 09:27:55;;;;;;;7.20;1.55;;;;;;;;;;5051514;28;20495;-63
2022/08/27 09:30:23;;;;;;;4.35;1.17;;;;;;;;;;5033419;28;20045;-63
2022/08/27 09:32:57;;;;;;;6.65;1.40;;;;;;;;;;5051763;28;20087;-63
2022/08/27 09:35:25;;;;;;;6.00;1.20;;;;;;;;;;5051828;28;20037;-63
2022/08/27 09:37:53;;;;;;;6.38;1.27;;;;;;;;;;5051282;28;20340;-63
2022/08/27 09:40:22;;;;;;;6.80;1.60;;;;;;;;;;5051718;28;20052;-63
2022/08/27 09:42:51;;;;;;;4.45;1.23;;;;;;;;;;5051569;28;20094;-63
2022/08/27 09:45:25;;;;;;;10.00;1.50;;;;;;;;;;5050983;28;20048;-63
2022/08/27 09:47:53;;;;;;;7.60;1.25;;;;;;;;;;5051376;28;20044;-63
2022/08/27 09:50:21;;;;;;;6.32;1.50;;;;;;;;;;5051075;28;20079;-63
2022/08/27 09:52:53;;;;;;;7.15;1.40;;;;;;;;;;5051059;28;20048;-63
2022/08/27 09:55:27;;;;;;;4.22;1.42;;;;;;;;;;5051491;28;20045;-63
2022/08/27 09:57:53;;;;;;;6.18;1.30;;;;;;;;;;5051342;28;20132;-63
2022/08/27 10:00:28;;;;;;;7.10;1.20;;;;;;;;;;5040868;28;20044;-63
2022/08/27 10:02:54;;;;;;;4.20;1.05;;;;;;;;;;5045651;28;20065;-63
2022/08/27 10:05:28;;;;;;;5.53;1.25;;;;;;;;;;5050985;28;20052;-63
2022/08/27 10:07:59;;;;;;;4.45;1.15;;;;;;;;;;5050478;28;20483;-63
2022/08/27 10:10:38;;;;;;;7.20;1.17;;;;;;;;;;5051350;28;20128;-63
2022/08/27 10:13:16;;;;;;;4.80;1.25;;;;;;;;;;5051357;28;20029;-63
2022/08/27 10:15:58;;;;;;;4.80;1.08;;;;;;;;;;5050956;28;20663;-63
2022/08/27 10:18:32;;;;;;;5.10;0.82;;;;;;;;;;5051270;28;20371;-63
2022/08/27 10:21:11;;;;;;;6.38;1.33;;;;;;;;;;5051089;28;20045;-63
2022/08/27 10:23:43;;;;;;;7.80;1.20;;;;;;;;;;5050882;28;20076;-63
2022/08/27 10:26:09;;;;;;;;;;;;;;;;;;5053339;28;20040;-63
2022/08/27 10:28:53;;;;;;;5.28;1.20;;;;;;;;;;5055105;28;20004;-63
2022/08/27 10:31:35;;;;;;;5.30;1.17;;;;;;;;;;5054634;28;20485;-63
2022/08/27 10:34:21;;;;;;;3.00;0.98;;;;;;;;;;5054987;28;20352;-63
2022/08/27 10:37:06;;;;;;;8.35;1.65;;;;;;;;;;5054151;28;20055;-63
2022/08/27 10:39:51;;;;;;;7.30;1.08;;;;;;;;;;5054957;28;20040;-63
2022/08/27 10:42:20;;;;;;;7.55;1.55;;;;;;;;;;5054862;28;20044;-63
2022/08/27 10:45:25;;;;;;;5.15;1.02;;;;;;;;;;5054220;28;20048;-63
2022/08/27 10:48:05;;;;;;;5.30;1.15;;;;;;;;;;4953482;29;20043;-63
2022/08/27 10:50:32;;;;;;;6.65;1.27;;;;;;;;;;4953917;29;20414;-63
2022/08/27 10:53:18;;;;;;;5.30;1.45;;;;;;;;;;5011163;28;20045;-63
2022/08/27 10:55:50;;;;;;;4.45;0.90;;;;;;;;;;5004045;28;20045;-63
2022/08/27 10:58:16;;;;;;;;;;;;;;;;;;5054484;28;20052;-63
2022/08/27 11:00:48;;;;;;;7.47;1.52;;;;;;;;;;5041094;28;19917;-63
2022/08/27 11:03:32;;;;;;;9.30;1.45;;;;;;;;;;5051510;28;20048;-63
2022/08/27 11:06:01;;;;;;;7.88;1.02;;;;;;;;;;5054196;28;20102;-63
2022/08/27 11:08:27;;;;;;;5.90;1.67;;;;;;;;;;5053555;28;20136;-63
2022/08/27 11:11:00;;;;;;;6.72;1.63;;;;;;;;;;5054225;28;20041;-63
2022/08/27 11:13:35;;;;;;;4.68;1.05;;;;;;;;;;5054248;28;20587;-63
2022/08/27 11:16:05;;;;;;;6.47;1.23;;;;;;;;;;5054003;28;20402;-63
2022/08/27 11:18:38;;;;;;;6.72;1.30;;;;;;;;;;5036043;28;20600;-63
2022/08/27 11:21:08;;;;;;;5.07;1.27;;;;;;;;;;5053837;28;20053;-63
2022/08/27 11:23:44;;;;;;;5.68;1.42;;;;;;;;;;5036149;28;20080;-63
2022/08/27 11:26:11;;;;;;;6.32;1.00;;;;;;;;;;5053650;28;20097;-63
2022/08/27 11:28:40;;;;;;;5.05;1.08;;;;;;;;;;5053576;28;20049;-63
2022/08/27 11:31:06;;;;;;;11.20;1.48;;;;;;;;;;5053493;28;20056;-63
2022/08/27 11:33:40;;;;;;;9.48;1.45;;;;;;;;;;5053928;28;20351;-63
2022/08/27 11:36:06;;;;;;;7.78;1.30;;;;;;;;;;5053159;28;20079;-63
2022/08/27 11:38:50;;;;;;;10.88;2.20;;;;;;;;;;5053932;28;20076;-63
2022/08/27 11:41:34;;;;;;;6.15;1.20;;;;;;;;;;5053813;28;20049;-63
2022/08/27 11:44:00;;;;;;;8.70;1.50;;;;;;;;;;5053219;28;20634;-63
2022/08/27 11:46:28;;;;;;;3.58;1.10;;;;;;;;;;5053717;28;20044;-63
2022/08/27 11:49:04;;;;;;;4.70;1.00;;;;;;;;;;5053442;28;20128;-63
2022/08/27 11:51:31;;;;;;;4.72;1.20;;;;;;;;;;5053185;28;20048;-63
2022/08/27 11:54:00;;;;;;;4.80;1.10;;;;;;;;;;5035686;28;20037;-63
2022/08/27 11:56:29;;;;;;;7.13;1.00;;;;;;;;;;5053135;28;20052;-63
2022/08/27 11:58:55;;;;;;;5.68;1.60;;;;;;;;;;5053194;28;20040;-63
2022/08/27 12:01:30;;;;;;;8.00;1.05;;;;;;;;;;5036479;28;20037;-63
2022/08/27 12:04:15;;;;;;;4.40;1.15;;;;;;;;;;5053447;28;20052;-63
2022/08/27 12:06:43;;;;;;;9.23;1.25;;;;;;;;;;5052412;28;20043;-63
2022/08/27 12:09:28;;;;;;;8.55;1.10;;;;;;;;;;5053237;28;20106;-63
2022/08/27 12:12:07;;;;;;;8.45;1.77;;;;;;;;;;5053230;28;20068;-63
2022/08/27 12:14:44;;;;;;;5.78;1.10;;;;;;;;;;5052472;28;20060;-63
2022/08/27 12:17:32;;;;;;;7.32;1.23;;;;;;;;;;5052730;28;20052;-63
2022/08/27 12:20:12;;;;;;;5.00;1.05;;;;;;;;;;5034641;28;20175;-63
2022/08/27 12:25:26;;;;;;;4.93;1.30;;;;;;;;;;5052825;28;20049;-63
2022/08/27 12:27:57;;;;;;;4.60;1.25;;;;;;;;;;5052402;28;20045;-63
2022/08/27 12:30:29;;;;;;;6.93;0.98;;;;;;;;;;5052699;28;20045;-63
2022/08/27 12:32:57;;;;;;;7.38;1.25;;;;;;;;;;5052888;28;20033;-63
2022/08/27 12:35:30;;;;;;;4.72;1.00;;;;;;;;;;5052408;28;20381;-63
2022/08/27 12:38:17;;;;;;;11.07;1.10;;;;;;;;;;5052350;28;20094;-63
2022/08/27 12:40:51;;;;;;;6.82;1.15;;;;;;;;;;5052618;28;20045;-63
2022/08/27 12:43:27;;;;;;;7.43;1.15;;;;;;;;;;5052252;28;20675;-63
2022/08/27 12:45:59;;;;;;;7.13;1.23;;;;;;;;;;5052219;28;20045;-63
2022/08/27 12:48:25;;;;;;;;;;;;;;;;;;5052225;28;20037;-63
2022/08/27 12:50:54;;;;;;;7.43;1.23;;;;;;;;;;5051747;28;19920;-63
2022/08/27 12:53:23;;;;;;;6.50;1.15;;;;;;;;;;5052435;28;20033;-63
2022/08/27 12:56:07;;;;;;;6.13;1.15;;;;;;;;;;5052458;28;20618;-63
2022/08/27 12:58:52;;;;;;;6.68;0.80;;;;;;;;;;5051874;28;20049;-63
2022/08/27 13:01:50;;;;;;;4.00;0.88;;;;;;;;;;5035373;28;20060;-63
2022/08/27 13:04:20;;;;;;;5.28;1.20;;;;;;;;;;4997408;28;20053;-63
2022/08/27 13:06:46;;;;;;;7.82;1.00;;;;;;;;;;5051307;28;20137;-63
2022/08/27 13:09:12;;;;;;;8.65;1.25;;;;;;;;;;5052220;28;20036;-63
2022/08/27 13:11:46;;;;;;;4.78;0.98;;;;;;;;;;5051735;28;20382;-63
2022/08/27 13:14:12;;;;;;;4.88;0.93;;;;;;;;;;5033886;28;20080;-63
2022/08/27 13:16:44;;;;;;;6.18;1.27;;;;;;;;;;5051950;28;20044;-63
2022/08/27 13:19:10;;;;;;;;;;;;;;;;;;5052437;28;20056;-63
2022/08/27 13:21:36;;;;;;;5.57;1.00;;;;;;;;;;5051594;28;19920;-63
2022/08/27 13:24:04;;;;;;;4.50;0.90;;;;;;;;;;5052080;28;20623;-63
2022/08/27 13:26:32;;;;;;;4.88;0.90;;;;;;;;;;5051856;28;20055;-63
2022/08/27 13:29:00;;;;;;;4.13;1.00;;;;;;;;;;5051381;28;20073;-63
2022/08/27 13:31:27;;;;;;;4.70;1.00;;;;;;;;;;5051813;28;20144;-63
2022/08/27 13:33:57;;;;;;;3.15;0.77;;;;;;;;;;5051857;28;20037;-63
2022/08/27 13:36:34;;;;;;;8.80;1.20;;;;;;;;;;5051326;28;20037;-63
2022/08/27 13:39:02;;;;;;;3.28;0.82;;;;;;;;;;5051675;28;20044;-63
2022/08/27 13:41:31;;;;;;;7.00;1.10;;;;;;;;;;5033744;28;20049;-63
2022/08/27 13:43:58;;;;;;;3.25;0.90;;;;;;;;;;5051343;28;20052;-63
2022/08/27 13:46:26;;;;;;;2.05;0.70;;;;;;;;;;5051546;28;20041;-63
2022/08/27 13:48:53;;;;;;;3.78;1.20;;;;;;;;;;5051107;28;20098;-63
2022/08/27 13:51:25;;;;;;;3.80;0.70;;;;;;;;;;5051022;28;20040;-63
2022/08/27 13:56:38;;;;;;;5.72;1.00;;;;;;;;;;5050689;28;20741;-63
2022/08/27 13:59:29;;;;;;;3.30;1.00;;;;;;;;;;5051141;28;20390;-63
2022/08/27 14:01:57;;;;;;;3.67;0.80;;;;;;;;;;5029821;28;20048;-63
2022/08/27 14:04:25;;;;;;;4.68;0.90;;;;;;;;;;5055147;28;20037;-63
2022/08/27 14:06:52;;;;;;;3.33;0.70;;;;;;;;;;5055070;28;20037;-63
2022/08/27 14:09:18;;;;;;;5.55;1.15;;;;;;;;;;5055478;28;20056;-63
2022/08/27 14:11:44;;;;;;;2.95;0.65;;;;;;;;;;5055029;28;20531;-63
2022/08/27 14:14:11;;;;;;;3.58;0.80;;;;;;;;;;5055411;28;20125;-63
2022/08/27 14:16:38;;;;;;;4.28;0.70;;;;;;;;;;5055185;28;20059;-63
2022/08/27 14:19:04;;;;;;;3.78;0.75;;;;;;;;;;5054968;28;20491;-63
2022/08/27 14:21:34;;;;;;;6.45;0.90;;;;;;;;;;5054960;28;20095;-63
2022/08/27 14:24:01;;;;;;;4.70;0.57;;;;;;;;;;5055227;28;20032;-63
2022/08/27 14:26:28;;;;;;;6.45;0.95;;;;;;;;;;5054435;28;20056;-63
2022/08/27 14:28:54;;;;;;;5.90;0.63;;;;;;;;;;5054524;28;20033;-63
2022/08/27 14:31:21;;;;;;;4.70;0.70;;;;;;;;;;5054443;28;20836;-63
2022/08/27 14:33:47;;;;;;;4.72;0.90;;;;;;;;;;5054763;28;20045;-63
2022/08/27 14:36:14;;;;;;;3.25;0.70;;;;;;;;;;5054777;28;20068;-63
2022/08/27 14:38:42;;;;;;;4.00;0.70;;;;;;;;;;5054760;28;20145;-63
2022/08/27 14:41:08;;;;;;;2.78;0.70;;;;;;;;;;5054465;28;20041;-63
2022/08/27 14:43:34;;;;;;;6.25;0.95;;;;;;;;;;5054706;28;20490;-63
2022/08/27 14:46:00;;;;;;;5.57;0.95;;;;;;;;;;5054471;28;20142;-63
2022/08/27 14:48:30;;;;;;;5.38;0.90;;;;;;;;;;5054362;28;20040;-63
2022/08/27 14:50:56;;;;;;;3.58;1.00;;;;;;;;;;5054754;28;20095;-63
2022/08/27 14:53:22;;;;;;;8.10;0.90;;;;;;;;;;5054757;28;20044;-63
2022/08/27 14:55:50;;;;;;;5.78;1.00;;;;;;;;;;5054294;28;20051;-63
2022/08/27 14:58:16;;;;;;;4.85;0.80;;;;;;;;;;5054473;28;20077;-63
2022/08/27 15:00:42;;;;;;;6.32;0.80;;;;;;;;;;5041746;28;20416;-63
2022/08/27 15:03:11;;;;;;;4.32;0.80;;;;;;;;;;5050243;28;20049;-63